Time;durP1;ratioP1;P1;durP2;ratioP2;P2;SDS_P1;SDS_P2;PMS_P1;PMS_P2;Temp;Humidity;BMP_temperature;BMP_pressure;BME280_temperature;BME280_humidity;BME280_pressure;Samples;Min_cycle;Max_cycle;Signal;HPM_P1;HPM_P2
2023/11/02 00:01:08;;;;;;;8.48;4.85;;;;;;;11.39;100.00;99615.28;5092985;28;20378;-46
2023/11/02 00:03:40;;;;;;;9.52;4.70;;;;;;;11.36;100.00;99618.16;5092837;28;20409;-44
2023/11/02 00:06:30;;;;;;;10.60;5.25;;;;;;;11.38;100.00;99613.56;5092986;28;20044;-44
2023/11/02 00:09:18;;;;;;;10.18;4.78;;;;;;;11.45;100.00;99609.47;5092611;28;20070;-45
2023/11/02 00:11:51;;;;;;;10.02;4.82;;;;;;;11.41;100.00;99610.69;5092565;28;20117;-46
2023/11/02 00:14:20;;;;;;;7.30;4.25;;;;;;;11.42;100.00;99596.38;5092632;28;20142;-45
2023/11/02 00:16:52;;;;;;;8.68;4.90;;;;;;;11.45;100.00;99598.81;5092421;28;20044;-46
2023/11/02 00:19:30;;;;;;;10.15;5.10;;;;;;;11.48;100.00;99597.72;5092367;28;20044;-46
2023/11/02 00:21:59;;;;;;;8.52;4.43;;;;;;;11.56;100.00;99599.81;5091861;28;20455;-45
2023/11/02 00:24:28;;;;;;;9.23;4.85;;;;;;;11.47;100.00;99602.19;5092205;28;20147;-45
2023/11/02 00:26:57;;;;;;;9.55;4.40;;;;;;;11.45;100.00;99596.13;5092198;28;20212;-44
2023/11/02 00:29:26;;;;;;;7.63;4.53;;;;;;;11.42;100.00;99588.34;5092627;28;20077;-45
2023/11/02 00:31:57;;;;;;;9.60;5.00;;;;;;;11.41;100.00;99588.47;5092198;28;20048;-46
2023/11/02 00:34:27;;;;;;;10.18;4.95;;;;;;;11.29;100.00;99584.91;5092016;28;20488;-46
2023/11/02 00:36:57;;;;;;;7.55;4.70;;;;;;;11.37;100.00;99582.50;5091931;28;20055;-46
2023/11/02 00:39:26;;;;;;;8.73;4.55;;;;;;;11.45;100.00;99574.75;5092040;28;20087;-45
2023/11/02 00:41:56;;;;;;;7.50;4.40;;;;;;;11.43;100.00;99568.69;5091952;28;20241;-44
2023/11/02 00:44:26;;;;;;;9.45;4.78;;;;;;;11.45;100.00;99566.75;5091838;28;20055;-44
2023/11/02 00:46:57;;;;;;;12.13;4.95;;;;;;;11.46;100.00;99570.28;5091932;28;20083;-45
2023/11/02 00:49:31;;;;;;;8.18;4.63;;;;;;;11.43;100.00;99568.69;5091597;28;20493;-45
2023/11/02 00:52:01;;;;;;;7.32;4.63;;;;;;;11.33;100.00;99561.47;5091932;28;20485;-44
2023/11/02 00:54:58;;;;;;;9.50;4.65;;;;;;;11.32;100.00;99565.13;5091832;28;20044;-45
2023/11/02 00:57:29;;;;;;;9.38;4.68;;;;;;;11.31;100.00;99556.25;5082624;28;20393;-45
2023/11/02 00:59:58;;;;;;;7.93;4.78;;;;;;;11.32;100.00;99549.94;5091559;28;20047;-45
2023/11/02 01:02:35;;;;;;;6.50;4.15;;;;;;;11.31;100.00;99542.91;5091698;28;20082;-45
2023/11/02 01:05:06;;;;;;;8.57;4.55;;;;;;;11.38;100.00;99543.28;5091700;28;20040;-45
2023/11/02 01:07:35;;;;;;;8.48;3.85;;;;;;;11.38;100.00;99544.13;5091445;28;20075;-46
2023/11/02 01:10:05;;;;;;;6.72;4.15;;;;;;;11.29;100.00;99546.63;5091431;28;20044;-44
2023/11/02 01:12:35;;;;;;;9.02;4.63;;;;;;;11.35;100.00;99549.72;5091279;28;20099;-45
2023/11/02 01:15:08;;;;;;;9.57;3.95;;;;;;;11.37;100.00;99547.78;5091626;28;20500;-45
2023/11/02 01:17:40;;;;;;;8.15;4.25;;;;;;;11.47;100.00;99548.78;5091301;28;20135;-46
2023/11/02 01:20:10;;;;;;;8.37;4.40;;;;;;;11.46;100.00;99547.09;5091183;28;20048;-46
2023/11/02 01:22:52;;;;;;;8.18;4.03;;;;;;;11.42;100.00;99534.94;5090822;28;20105;-44
2023/11/02 01:25:24;;;;;;;7.60;4.10;;;;;;;11.49;100.00;99539.84;5091240;28;20489;-44
2023/11/02 01:27:58;;;;;;;6.55;3.83;;;;;;;11.50;100.00;99536.19;5091357;28;20462;-43
2023/11/02 01:30:59;;;;;;;7.15;4.10;;;;;;;11.47;100.00;99538.09;5091066;28;20048;-44
2023/11/02 01:33:58;;;;;;;6.88;4.30;;;;;;;11.51;100.00;99543.25;5091260;28;20044;-46
2023/11/02 01:36:42;;;;;;;8.15;3.95;;;;;;;11.53;100.00;99547.50;5087756;28;20108;-45
2023/11/02 01:39:46;;;;;;;8.48;4.13;;;;;;;11.50;100.00;99547.72;5090766;28;20100;-45
2023/11/02 01:42:20;;;;;;;;;;;;;;;11.54;100.00;99551.00;5091492;28;20059;-47
2023/11/02 01:44:54;;;;;;;9.23;4.78;;;;;;;11.54;100.00;99543.00;5090863;28;19986;-45
2023/11/02 01:47:40;;;;;;;7.65;4.00;;;;;;;11.56;100.00;99549.91;5090854;28;20109;-48
2023/11/02 01:50:17;;;;;;;7.78;4.47;;;;;;;11.42;100.00;99545.63;5090724;28;20048;-46
2023/11/02 01:53:16;;;;;;;7.50;4.20;;;;;;;11.33;100.00;99535.63;5090727;28;20040;-44
2023/11/02 01:56:04;;;;;;;8.63;3.88;;;;;;;11.35;100.00;99538.19;5090129;28;20498;-46
2023/11/02 01:58:40;;;;;;;9.77;4.43;;;;;;;11.41;100.00;99540.41;5090878;28;20052;-44
2023/11/02 02:01:18;;;;;;;8.32;4.35;;;;;;;11.45;100.00;99540.03;5090824;28;20051;-45
2023/11/02 02:03:54;;;;;;;8.43;4.55;;;;;;;11.47;100.00;99537.25;5090674;28;20040;-45
2023/11/02 02:06:30;;;;;;;8.65;4.75;;;;;;;11.39;100.00;99529.84;5090814;28;20055;-45
2023/11/02 02:09:12;;;;;;;7.30;4.18;;;;;;;11.39;100.00;99523.66;5090491;28;20056;-45
2023/11/02 02:11:54;;;;;;;8.45;4.35;;;;;;;11.36;100.00;99524.72;5090799;28;20112;-45
2023/11/02 02:14:31;;;;;;;9.00;4.70;;;;;;;11.40;100.00;99531.53;5090669;28;20132;-46
2023/11/02 02:17:09;;;;;;;9.90;4.65;;;;;;;11.29;100.00;99519.94;5090577;28;20450;-44
2023/11/02 02:20:00;;;;;;;9.32;4.45;;;;;;;11.19;100.00;99517.09;5090359;28;20062;-44
2023/11/02 02:22:36;;;;;;;8.70;4.38;;;;;;;11.20;100.00;99508.16;5094503;28;20055;-45
2023/11/02 02:25:13;;;;;;;8.73;4.22;;;;;;;11.05;100.00;99509.28;5094477;28;20047;-44
2023/11/02 02:28:16;;;;;;;9.48;4.68;;;;;;;11.20;100.00;99504.63;5094796;28;20053;-47
2023/11/02 02:31:02;;;;;;;7.82;4.53;;;;;;;11.24;100.00;99508.78;5094169;28;20521;-45
2023/11/02 02:34:06;;;;;;;7.88;4.45;;;;;;;11.23;100.00;99507.91;5094476;28;20059;-43
2023/11/02 02:36:43;;;;;;;7.43;4.28;;;;;;;11.26;100.00;99505.00;5092179;28;20143;-44
2023/11/02 02:39:16;;;;;;;8.25;4.50;;;;;;;11.26;100.00;99509.50;5094248;28;20181;-45
2023/11/02 02:41:46;;;;;;;9.23;4.22;;;;;;;11.28;100.00;99505.75;5094277;28;20044;-45
2023/11/02 02:44:19;;;;;;;7.97;4.32;;;;;;;11.26;100.00;99507.69;5093884;28;20536;-44
2023/11/02 02:46:49;;;;;;;6.88;4.10;;;;;;;11.31;100.00;99510.88;5094369;28;20051;-45
2023/11/02 02:49:17;;;;;;;8.48;4.40;;;;;;;11.35;100.00;99507.00;5093955;28;20040;-45
2023/11/02 02:51:50;;;;;;;7.15;4.53;;;;;;;11.35;100.00;99506.16;5094092;28;20117;-45
2023/11/02 02:54:22;;;;;;;8.18;4.55;;;;;;;11.39;100.00;99497.81;5094084;28;20051;-46
2023/11/02 02:56:52;;;;;;;7.28;4.30;;;;;;;11.42;100.00;99502.06;5093973;28;20140;-45
2023/11/02 02:59:23;;;;;;;7.97;4.50;;;;;;;11.35;100.00;99500.81;5093871;28;20055;-45
2023/11/02 03:01:55;;;;;;;9.88;4.50;;;;;;;11.16;100.00;99490.66;5093905;28;20048;-44
2023/11/02 03:04:25;;;;;;;8.45;4.35;;;;;;;11.08;100.00;99488.53;5093882;28;20050;-44
2023/11/02 03:06:57;;;;;;;8.70;4.43;;;;;;;10.91;100.00;99480.09;5093718;28;20105;-45
2023/11/02 03:09:30;;;;;;;8.07;4.50;;;;;;;10.81;100.00;99475.44;5093457;28;20044;-44
2023/11/02 03:12:01;;;;;;;;;;;;;;;10.89;100.00;99474.84;5094201;28;20052;-45
2023/11/02 03:14:30;;;;;;;7.80;3.95;;;;;;;10.96;100.00;99477.94;5093639;28;19924;-45
2023/11/02 03:17:06;;;;;;;7.72;4.40;;;;;;;10.96;100.00;99477.94;5093462;28;20493;-44
2023/11/02 03:19:45;;;;;;;8.25;4.40;;;;;;;11.03;100.00;99476.53;5093629;28;20052;-44
2023/11/02 03:22:17;;;;;;;6.82;4.18;;;;;;;11.13;100.00;99475.72;5093604;28;20056;-44
2023/11/02 03:25:06;;;;;;;7.13;4.00;;;;;;;11.15;100.00;99472.94;5093186;28;20495;-44
2023/11/02 03:27:47;;;;;;;7.85;4.40;;;;;;;11.21;100.00;99472.47;5093549;28;20040;-45
2023/11/02 03:30:25;;;;;;;8.65;4.13;;;;;;;10.96;100.00;99478.78;5093247;28;20044;-44
2023/11/02 03:33:04;;;;;;;7.32;4.30;;;;;;;10.98;100.00;99481.34;5092159;28;20128;-45
2023/11/02 03:35:36;;;;;;;7.55;4.50;;;;;;;10.88;100.00;99482.00;5093182;28;20500;-44
2023/11/02 03:38:16;;;;;;;13.48;4.40;;;;;;;10.87;100.00;99479.47;5093095;28;20520;-45
2023/11/02 03:40:59;;;;;;;7.93;4.88;;;;;;;10.82;100.00;99482.47;5092840;28;20113;-43
2023/11/02 03:43:31;;;;;;;;;;;;;;;10.91;100.00;99482.78;5093677;28;20051;-43
2023/11/02 03:46:16;;;;;;;8.68;4.78;;;;;;;10.92;100.00;99481.81;5092869;28;20015;-48
2023/11/02 03:48:46;;;;;;;8.88;5.13;;;;;;;10.61;100.00;99470.69;5092837;28;20059;-47
2023/11/02 03:51:25;;;;;;;9.48;4.70;;;;;;;10.58;100.00;99470.91;5092609;28;20059;-44
2023/11/02 03:54:07;;;;;;;10.13;4.82;;;;;;;10.62;100.00;99472.41;5092636;28;20052;-45
2023/11/02 03:56:55;;;;;;;9.52;5.03;;;;;;;10.43;100.00;99464.03;5093048;28;20047;-45
2023/11/02 03:59:29;;;;;;;8.80;5.20;;;;;;;10.28;100.00;99455.31;5092482;28;20123;-47
2023/11/02 04:02:01;;;;;;;9.00;5.22;;;;;;;10.41;100.00;99460.63;5092508;28;20063;-44
2023/11/02 04:04:39;;;;;;;8.70;4.85;;;;;;;10.49;100.00;99461.78;5092720;28;20105;-44
2023/11/02 04:07:21;;;;;;;7.75;4.70;;;;;;;10.56;100.00;99456.84;5092726;28;20055;-44
2023/11/02 04:09:55;;;;;;;9.30;4.95;;;;;;;10.54;100.00;99456.97;5092683;28;20044;-45
2023/11/02 04:12:33;;;;;;;9.32;4.97;;;;;;;10.56;100.00;99448.84;5092544;28;20515;-46
2023/11/02 04:15:02;;;;;;;8.05;4.80;;;;;;;10.58;100.00;99454.91;5092408;28;20071;-45
2023/11/02 04:17:31;;;;;;;7.88;4.55;;;;;;;10.48;100.00;99454.75;5091291;28;20044;-45
2023/11/02 04:20:00;;;;;;;8.20;4.72;;;;;;;10.25;100.00;99447.56;5092242;28;20457;-45
2023/11/02 04:22:29;;;;;;;8.93;4.78;;;;;;;10.40;100.00;99442.91;5092544;28;20059;-44
2023/11/02 04:24:59;;;;;;;9.73;4.93;;;;;;;10.25;100.00;99435.09;5093136;28;20113;-44
2023/11/02 04:27:28;;;;;;;8.65;5.28;;;;;;;10.18;100.00;99431.09;5093406;28;20089;-46
2023/11/02 04:29:56;;;;;;;8.55;4.97;;;;;;;10.19;100.00;99426.63;5092682;28;20056;-44
2023/11/02 04:32:25;;;;;;;7.82;4.75;;;;;;;10.29;100.00;99417.88;5091833;28;20473;-46
2023/11/02 04:34:53;;;;;;;8.75;4.47;;;;;;;10.32;100.00;99419.47;5092053;28;20413;-43
2023/11/02 04:37:22;;;;;;;7.70;4.60;;;;;;;10.19;100.00;99424.81;5091924;28;20048;-44
2023/11/02 04:39:50;;;;;;;8.38;4.28;;;;;;;10.30;100.00;99424.91;5091941;28;20044;-43
2023/11/02 04:42:21;;;;;;;9.75;4.40;;;;;;;10.34;100.00;99422.06;5091756;28;20108;-44
2023/11/02 04:44:51;;;;;;;7.57;4.65;;;;;;;10.34;100.00;99408.72;5091971;28;20040;-44
2023/11/02 04:47:20;;;;;;;8.88;4.53;;;;;;;10.45;100.00;99409.66;5091868;28;20047;-45
2023/11/02 04:49:48;;;;;;;7.63;4.28;;;;;;;10.45;100.00;99408.78;5091736;28;20043;-46
2023/11/02 04:52:17;;;;;;;8.63;4.22;;;;;;;10.43;100.00;99410.72;5092001;28;20040;-44
2023/11/02 04:54:45;;;;;;;8.82;4.38;;;;;;;10.54;100.00;99418.78;5091711;28;20048;-46
2023/11/02 04:57:13;;;;;;;9.98;4.90;;;;;;;10.37;100.00;99411.16;5092122;28;20047;-45
2023/11/02 04:59:44;;;;;;;8.63;4.82;;;;;;;10.31;100.00;99412.44;5092036;28;20040;-46
2023/11/02 05:02:13;;;;;;;9.23;4.40;;;;;;;10.37;100.00;99416.50;5091800;28;20079;-46
2023/11/02 05:04:41;;;;;;;9.30;5.00;;;;;;;10.37;100.00;99421.81;5092266;28;20048;-45
2023/11/02 05:07:10;;;;;;;10.15;5.07;;;;;;;10.36;100.00;99420.13;5092433;28;20131;-46
2023/11/02 05:09:38;;;;;;;9.00;5.07;;;;;;;10.24;100.00;99422.72;5091620;28;20105;-46
2023/11/02 05:12:07;;;;;;;9.35;4.75;;;;;;;10.08;100.00;99422.06;5092046;28;20075;-45
2023/11/02 05:14:36;;;;;;;10.45;5.03;;;;;;;10.10;100.00;99411.28;5092374;28;20052;-45
2023/11/02 05:17:06;;;;;;;8.57;4.88;;;;;;;10.07;100.00;99409.72;5092850;28;20161;-44
2023/11/02 05:19:35;;;;;;;10.90;5.03;;;;;;;10.11;100.00;99413.84;5093231;28;20413;-45
2023/11/02 05:22:03;;;;;;;9.65;4.55;;;;;;;10.03;100.00;99402.88;5091931;28;20103;-45
2023/11/02 05:24:31;;;;;;;11.18;4.80;;;;;;;9.99;100.00;99398.75;5092134;28;20121;-44
2023/11/02 05:27:01;;;;;;;8.65;4.70;;;;;;;10.08;100.00;99392.75;5091163;28;20055;-45
2023/11/02 05:29:29;;;;;;;7.82;4.45;;;;;;;10.18;100.00;99399.13;5090800;28;20105;-45
2023/11/02 05:31:58;;;;;;;12.30;5.15;;;;;;;10.13;100.00;99409.25;5091204;28;20052;-45
2023/11/02 05:34:28;;;;;;;10.45;5.20;;;;;;;10.15;100.00;99412.69;5091136;28;20044;-44
2023/11/02 05:36:59;;;;;;;8.32;4.97;;;;;;;10.15;100.00;99410.03;5091043;28;20086;-46
2023/11/02 05:39:28;;;;;;;9.43;4.85;;;;;;;10.17;100.00;99407.25;5090927;28;20040;-45
2023/11/02 05:41:56;;;;;;;9.63;5.32;;;;;;;10.20;100.00;99405.19;5090736;28;20059;-44
2023/11/02 05:44:24;;;;;;;9.18;5.30;;;;;;;10.17;100.00;99404.56;5091120;28;20047;-44
2023/11/02 05:46:53;;;;;;;8.48;4.97;;;;;;;10.17;100.00;99397.44;5090760;28;20047;-45
2023/11/02 05:49:22;;;;;;;9.02;5.32;;;;;;;10.26;100.00;99403.94;5090865;28;20058;-44
2023/11/02 05:51:51;;;;;;;11.45;5.30;;;;;;;10.20;100.00;99399.00;5090630;28;20143;-44
2023/11/02 05:54:20;;;;;;;12.52;5.43;;;;;;;10.24;100.00;99414.72;5090595;28;20044;-44
2023/11/02 05:56:48;;;;;;;9.30;5.00;;;;;;;10.12;100.00;99407.56;5090170;28;20101;-45
2023/11/02 05:59:16;;;;;;;9.95;5.78;;;;;;;10.12;100.00;99412.03;5090662;28;20220;-43
2023/11/02 06:01:47;;;;;;;9.57;5.20;;;;;;;10.05;100.00;99395.66;5090483;28;20091;-45
2023/11/02 06:04:16;;;;;;;8.55;5.20;;;;;;;9.99;100.00;99390.75;5080653;28;20040;-43
2023/11/02 06:06:44;;;;;;;9.82;5.72;;;;;;;10.06;100.00;99394.69;5070313;28;20048;-45
2023/11/02 06:09:13;;;;;;;11.15;5.28;;;;;;;10.15;100.00;99394.03;5070149;28;20044;-45
2023/11/02 06:11:42;;;;;;;13.68;5.53;;;;;;;10.11;100.00;99400.53;5077510;28;20066;-45
2023/11/02 06:14:11;;;;;;;9.98;5.38;;;;;;;10.17;100.00;99408.09;5090404;28;20392;-42
2023/11/02 06:16:39;;;;;;;11.77;5.50;;;;;;;10.16;100.00;99413.53;5080551;28;20049;-46
2023/11/02 06:19:08;;;;;;;9.85;5.68;;;;;;;10.30;100.00;99414.25;5070413;28;20049;-45
2023/11/02 06:21:37;;;;;;;12.65;5.85;;;;;;;10.26;100.00;99415.47;5070154;28;20155;-43
2023/11/02 06:24:06;;;;;;;10.55;6.00;;;;;;;10.22;100.00;99408.63;5069870;28;20460;-43
2023/11/02 06:26:35;;;;;;;9.88;6.32;;;;;;;10.24;100.00;99404.06;5070485;28;20518;-46
2023/11/02 06:29:04;;;;;;;11.80;5.63;;;;;;;10.30;100.00;99395.59;5072108;28;20076;-44
2023/11/02 06:31:32;;;;;;;13.57;6.45;;;;;;;10.40;100.00;99400.25;5090638;28;20083;-45
2023/11/02 06:34:01;;;;;;;9.93;5.90;;;;;;;10.42;100.00;99398.34;5090440;28;20385;-46
2023/11/02 06:36:30;;;;;;;11.60;6.53;;;;;;;10.39;100.00;99395.91;5090097;28;20052;-45
2023/11/02 06:38:58;;;;;;;13.93;7.35;;;;;;;10.37;100.00;99400.50;5090129;28;20048;-44
2023/11/02 06:41:27;;;;;;;15.13;6.97;;;;;;;10.47;100.00;99405.03;5090239;28;20083;-46
2023/11/02 06:43:56;;;;;;;15.68;8.85;;;;;;;10.65;100.00;99410.84;5090255;28;20058;-44
2023/11/02 06:46:25;;;;;;;12.05;6.70;;;;;;;10.54;100.00;99392.13;5090130;28;20082;-45
2023/11/02 06:48:53;;;;;;;13.77;8.00;;;;;;;10.69;100.00;99404.31;5090058;28;20131;-45
2023/11/02 06:51:22;;;;;;;12.85;6.10;;;;;;;10.53;100.00;99398.44;5090355;28;20078;-46
2023/11/02 06:53:50;;;;;;;11.07;5.95;;;;;;;10.36;100.00;99394.31;5085810;28;20095;-45
2023/11/02 06:56:21;;;;;;;12.73;6.78;;;;;;;10.41;100.00;99386.81;5070036;28;20136;-45
2023/11/02 06:58:49;;;;;;;9.65;5.68;;;;;;;10.52;100.00;99384.25;5070271;28;20091;-45
2023/11/02 07:01:19;;;;;;;13.10;6.25;;;;;;;10.94;100.00;99392.66;5069949;28;20045;-44
2023/11/02 07:03:47;;;;;;;11.93;5.82;;;;;;;11.10;100.00;99390.56;5068624;28;20080;-43
2023/11/02 07:06:15;;;;;;;10.85;5.45;;;;;;;11.01;100.00;99383.25;5070815;28;20059;-45
2023/11/02 07:08:43;;;;;;;9.23;6.03;;;;;;;11.08;100.00;99380.94;5073663;28;20461;-45
2023/11/02 07:11:12;;;;;;;10.55;6.15;;;;;;;11.12;100.00;99377.09;5073822;28;20052;-45
2023/11/02 07:13:40;;;;;;;9.00;5.78;;;;;;;11.20;100.00;99380.03;5073781;28;20045;-44
2023/11/02 07:16:10;;;;;;;9.65;5.72;;;;;;;11.22;100.00;99382.56;5073180;28;20048;-46
2023/11/02 07:18:39;;;;;;;13.20;6.25;;;;;;;11.23;100.00;99379.78;5073565;28;20190;-44
2023/11/02 07:21:07;;;;;;;10.05;5.63;;;;;;;11.34;100.00;99378.97;5072903;28;20055;-46
2023/11/02 07:23:37;;;;;;;9.95;5.70;;;;;;;11.38;100.00;99383.94;5072802;28;20052;-44
2023/11/02 07:26:08;;;;;;;10.48;5.75;;;;;;;11.55;100.00;99387.97;5072777;28;20052;-44
2023/11/02 07:28:36;;;;;;;9.48;5.82;;;;;;;11.66;100.00;99371.94;5072931;28;20045;-44
2023/11/02 07:31:07;;;;;;;9.15;5.60;;;;;;;11.40;100.00;99379.34;5073063;28;20060;-44
2023/11/02 07:33:40;;;;;;;10.60;6.03;;;;;;;11.50;100.00;99382.16;5073101;28;20056;-44
2023/11/02 07:36:13;;;;;;;10.88;5.28;;;;;;;11.61;100.00;99366.13;5072699;28;20044;-45
2023/11/02 07:38:53;;;;;;;9.50;5.50;;;;;;;11.62;100.00;99362.50;5072545;28;20049;-45
2023/11/02 07:41:21;;;;;;;10.52;5.97;;;;;;;11.52;100.00;99364.19;5072482;28;20140;-44
2023/11/02 07:43:49;;;;;;;10.07;5.38;;;;;;;11.62;100.00;99356.31;5072397;28;20097;-45
2023/11/02 07:46:18;;;;;;;10.27;6.00;;;;;;;11.85;100.00;99355.34;5072437;28;20044;-44
2023/11/02 07:48:46;;;;;;;10.13;5.82;;;;;;;12.04;100.00;99350.25;5072439;28;20097;-43
2023/11/02 07:51:16;;;;;;;11.52;6.07;;;;;;;12.20;100.00;99354.34;5072451;28;20068;-44
2023/11/02 07:53:45;;;;;;;8.63;5.70;;;;;;;12.31;100.00;99357.00;5072143;28;20489;-46
2023/11/02 07:56:13;;;;;;;9.77;5.07;;;;;;;12.47;100.00;99353.94;5072314;28;20048;-45
2023/11/02 07:58:42;;;;;;;10.20;5.28;;;;;;;12.50;100.00;99353.69;5072311;28;20044;-43
2023/11/02 08:01:11;;;;;;;7.78;4.70;;;;;;;12.51;100.00;99361.56;5072305;28;20083;-45
2023/11/02 08:03:39;;;;;;;8.15;4.80;;;;;;;12.42;100.00;99354.28;5072117;28;20041;-45
2023/11/02 08:06:09;;;;;;;7.65;4.93;;;;;;;12.45;100.00;99347.84;5072070;28;20102;-45
2023/11/02 08:08:39;;;;;;;9.27;5.40;;;;;;;12.51;100.00;99348.19;5072278;28;20044;-45
2023/11/02 08:11:07;;;;;;;8.40;4.68;;;;;;;12.53;100.00;99338.22;5072415;28;20068;-45
2023/11/02 08:13:36;;;;;;;8.82;5.03;;;;;;;12.65;100.00;99338.19;5072071;28;20424;-46
2023/11/02 08:16:05;;;;;;;11.10;5.35;;;;;;;12.72;100.00;99334.84;5071966;28;20052;-45
2023/11/02 08:18:36;;;;;;;11.15;5.07;;;;;;;12.71;100.00;99337.66;5071534;28;20080;-45
2023/11/02 08:21:09;;;;;;;10.27;5.13;;;;;;;12.60;100.00;99330.53;5072302;28;20048;-46
2023/11/02 08:23:39;;;;;;;8.38;5.03;;;;;;;12.59;100.00;99318.13;5071923;28;20064;-46
2023/11/02 08:26:07;;;;;;;9.50;5.18;;;;;;;12.71;100.00;99321.63;5072888;28;20051;-45
2023/11/02 08:28:36;;;;;;;9.25;5.30;;;;;;;12.81;100.00;99317.19;5072404;28;20123;-46
2023/11/02 08:31:04;;;;;;;8.80;5.18;;;;;;;12.57;100.00;99312.94;5071848;28;20048;-46
2023/11/02 08:33:37;;;;;;;10.35;5.38;;;;;;;12.81;100.00;99318.03;5071824;28;20052;-45
2023/11/02 08:36:14;;;;;;;10.98;5.68;;;;;;;13.02;100.00;99314.50;5072052;28;20056;-44
2023/11/02 08:38:44;;;;;;;10.50;5.65;;;;;;;13.16;100.00;99306.16;5071850;28;20114;-46
2023/11/02 08:41:18;;;;;;;9.25;4.72;;;;;;;13.13;100.00;99298.41;5071536;28;20044;-44
2023/11/02 08:43:47;;;;;;;8.65;5.07;;;;;;;13.01;100.00;99300.28;5071346;28;20131;-43
2023/11/02 08:46:17;;;;;;;10.02;5.55;;;;;;;13.02;100.00;99295.78;5071333;28;20048;-45
2023/11/02 08:48:46;;;;;;;9.38;5.68;;;;;;;12.96;100.00;99294.50;5071473;28;20049;-45
2023/11/02 08:51:16;;;;;;;8.75;5.72;;;;;;;13.11;100.00;99290.47;5071556;28;20048;-46
2023/11/02 08:53:49;;;;;;;9.45;5.60;;;;;;;13.06;100.00;99289.19;5071492;28;20049;-45
2023/11/02 08:56:17;;;;;;;8.63;5.25;;;;;;;13.14;100.00;99290.25;5071156;28;20123;-44
2023/11/02 08:58:47;;;;;;;9.57;5.63;;;;;;;12.86;100.00;99282.88;5071500;28;20048;-45
2023/11/02 09:01:20;;;;;;;8.77;5.38;;;;;;;12.84;100.00;99284.84;5071430;28;20126;-45
2023/11/02 09:03:50;;;;;;;8.40;5.20;;;;;;;12.93;100.00;99276.00;5071109;28;20080;-44
2023/11/02 09:06:20;;;;;;;8.95;5.20;;;;;;;12.93;100.00;99273.31;5071122;28;20083;-45
2023/11/02 09:08:51;;;;;;;10.48;5.18;;;;;;;12.98;100.00;99275.63;5070974;28;20079;-44
2023/11/02 09:11:19;;;;;;;10.90;5.72;;;;;;;12.97;100.00;99263.22;5071006;28;20062;-45
2023/11/02 09:13:48;;;;;;;9.38;5.40;;;;;;;13.09;100.00;99267.50;5070926;28;20586;-44
2023/11/02 09:16:16;;;;;;;11.38;5.72;;;;;;;13.22;100.00;99261.97;5071118;28;20382;-44
2023/11/02 09:18:44;;;;;;;9.10;5.50;;;;;;;13.30;100.00;99256.78;5071135;28;20394;-45
2023/11/02 09:21:13;;;;;;;11.15;5.88;;;;;;;13.33;100.00;99259.22;5070993;28;20474;-44
2023/11/02 09:23:43;;;;;;;8.98;5.55;;;;;;;13.15;100.00;99257.13;5070783;28;20052;-45
2023/11/02 09:26:13;;;;;;;11.07;5.80;;;;;;;13.37;100.00;99247.25;5071308;28;20044;-45
2023/11/02 09:28:41;;;;;;;9.65;5.18;;;;;;;13.48;100.00;99247.16;5071447;28;20047;-45
2023/11/02 09:31:12;;;;;;;8.93;5.35;;;;;;;13.53;100.00;99244.94;5070439;28;20044;-46
2023/11/02 09:33:41;;;;;;;10.50;5.50;;;;;;;13.58;100.00;99244.50;5071143;28;20566;-45
2023/11/02 09:36:09;;;;;;;9.40;5.20;;;;;;;13.69;100.00;99239.88;5070962;28;20135;-48
2023/11/02 09:38:38;;;;;;;9.70;5.60;;;;;;;13.90;100.00;99229.09;5071063;28;20063;-45
2023/11/02 09:41:07;;;;;;;10.10;5.20;;;;;;;14.02;100.00;99233.34;5071450;28;20098;-46
2023/11/02 09:43:37;;;;;;;10.60;5.40;;;;;;;13.85;100.00;99217.94;5070841;28;20508;-46
2023/11/02 09:46:06;;;;;;;10.82;5.38;;;;;;;13.93;100.00;99222.63;5070913;28;20049;-46
2023/11/02 09:48:34;;;;;;;9.25;5.10;;;;;;;13.87;100.00;99209.75;5071843;28;20044;-46
2023/11/02 09:51:05;;;;;;;9.60;5.10;;;;;;;14.12;100.00;99192.28;5073066;28;20167;-47
2023/11/02 09:53:33;;;;;;;11.27;4.82;;;;;;;14.07;100.00;99190.03;5072541;28;20128;-46
2023/11/02 09:56:02;;;;;;;10.45;4.90;;;;;;;14.13;100.00;99183.25;5072829;28;20045;-46
2023/11/02 09:58:32;;;;;;;10.90;4.75;;;;;;;14.29;100.00;99167.47;5072659;28;20049;-46
2023/11/02 10:01:02;;;;;;;12.75;5.45;;;;;;;14.45;100.00;99166.91;5072257;28;20482;-44
2023/11/02 10:03:31;;;;;;;7.78;5.25;;;;;;;14.49;100.00;99157.59;5072047;28;20044;-45
2023/11/02 10:06:00;;;;;;;8.57;4.65;;;;;;;14.60;100.00;99149.38;5073176;28;20045;-44
2023/11/02 10:08:28;;;;;;;7.82;4.63;;;;;;;14.65;100.00;99149.75;5072814;28;20049;-49
2023/11/02 10:11:10;;;;;;;7.90;4.60;;;;;;;14.72;100.00;99140.16;5072306;28;20041;-45
2023/11/02 10:13:39;;;;;;;7.00;4.05;;;;;;;14.78;100.00;99131.53;5072020;28;20170;-44
2023/11/02 10:16:12;;;;;;;6.80;4.38;;;;;;;14.85;100.00;99135.28;5072219;28;20048;-46
2023/11/02 10:18:40;;;;;;;11.93;4.45;;;;;;;14.98;100.00;99131.47;5071865;28;20055;-45
2023/11/02 10:21:11;;;;;;;8.25;4.60;;;;;;;15.15;100.00;99127.97;5070498;28;20099;-45
2023/11/02 10:23:54;;;;;;;8.32;4.13;;;;;;;15.11;100.00;99121.22;5070148;28;20053;-45
2023/11/02 10:26:23;;;;;;;8.68;4.60;;;;;;;15.08;100.00;99110.78;5070217;28;20056;-47
2023/11/02 10:28:55;;;;;;;9.43;4.25;;;;;;;15.28;100.00;99112.38;5070575;28;20044;-45
2023/11/02 10:31:30;;;;;;;7.30;3.90;;;;;;;15.45;100.00;99108.03;5070466;28;20413;-46
2023/11/02 10:33:58;;;;;;;7.72;3.85;;;;;;;15.59;100.00;99095.91;5069094;28;20044;-45
2023/11/02 10:36:27;;;;;;;8.85;4.15;;;;;;;15.64;100.00;99096.34;5070305;28;20409;-44
2023/11/02 10:38:56;;;;;;;10.40;4.45;;;;;;;15.61;100.00;99092.09;5069949;28;20374;-44
2023/11/02 10:41:26;;;;;;;9.05;4.15;;;;;;;15.63;100.00;99087.44;5071356;28;20752;-45
2023/11/02 10:43:57;;;;;;;10.05;4.40;;;;;;;15.66;100.00;99088.97;5074067;28;20052;-44
2023/11/02 10:46:28;;;;;;;8.70;3.92;;;;;;;15.77;100.00;99087.91;5073810;28;20139;-45
2023/11/02 10:49:00;;;;;;;6.07;3.05;;;;;;;15.93;100.00;99088.91;5073973;28;20045;-45
2023/11/02 10:51:29;;;;;;;8.48;3.53;;;;;;;16.02;100.00;99087.13;5073767;28;20052;-45
2023/11/02 10:54:14;;;;;;;7.22;3.38;;;;;;;16.08;100.00;99072.19;5073966;28;20044;-45
2023/11/02 10:56:43;;;;;;;7.25;3.50;;;;;;;16.07;100.00;99070.50;5074159;28;20044;-44
2023/11/02 10:59:12;;;;;;;7.55;3.83;;;;;;;16.15;100.00;99067.91;5073936;28;20045;-44
2023/11/02 11:01:44;;;;;;;5.90;3.20;;;;;;;16.03;100.00;99054.69;5073381;28;20135;-45
2023/11/02 11:04:13;;;;;;;6.75;3.50;;;;;;;16.03;100.00;99048.47;5073708;28;20470;-44
2023/11/02 11:06:43;;;;;;;6.95;3.35;;;;;;;16.25;100.00;99052.50;5073798;28;20429;-46
2023/11/02 11:09:12;;;;;;;6.60;3.00;;;;;;;16.36;100.00;99037.94;5073520;28;20052;-44
2023/11/02 11:11:42;;;;;;;6.55;3.15;;;;;;;16.44;100.00;99035.28;5072284;28;20041;-47
2023/11/02 11:14:13;;;;;;;6.30;2.95;;;;;;;16.46;100.00;99034.13;5074962;28;20051;-46
2023/11/02 11:16:44;;;;;;;7.60;3.25;;;;;;;16.39;100.00;99029.53;5074977;28;20083;-45
2023/11/02 11:19:12;;;;;;;6.75;3.40;;;;;;;16.39;100.00;99022.31;5074981;28;20516;-46
2023/11/02 11:21:42;;;;;;;5.70;3.25;;;;;;;16.44;100.00;99019.16;5074815;28;20176;-45
2023/11/02 11:24:13;;;;;;;7.43;3.60;;;;;;;16.65;100.00;99016.91;5074889;28;20150;-46
2023/11/02 11:26:50;;;;;;;6.45;3.22;;;;;;;16.45;100.00;99005.53;5074975;28;20051;-46
2023/11/02 11:29:35;;;;;;;8.75;3.75;;;;;;;16.34;100.00;99013.03;5074650;28;20398;-48
2023/11/02 11:32:05;;;;;;;6.88;3.47;;;;;;;16.41;100.00;99004.19;5073740;28;20089;-52
2023/11/02 11:35:05;;;;;;;7.00;3.25;;;;;;;16.49;100.00;98995.28;5073774;28;20414;-45
2023/11/02 11:37:35;;;;;;;7.03;3.38;;;;;;;16.58;100.00;98983.53;5073175;28;20080;-45
2023/11/02 11:40:10;;;;;;;8.98;4.00;;;;;;;16.75;100.00;98984.50;5072861;28;20122;-46
2023/11/02 11:42:58;;;;;;;7.20;3.40;;;;;;;16.79;100.00;98975.09;5073118;28;20076;-46
2023/11/02 11:45:28;;;;;;;7.10;3.60;;;;;;;16.90;100.00;98969.41;5072866;28;20094;-45
2023/11/02 11:47:58;;;;;;;6.20;3.22;;;;;;;16.87;100.00;98969.72;5073051;28;20437;-46